Time;durP1;ratioP1;P1;durP2;ratioP2;P2;SDS_P1;SDS_P2;PMS_P1;PMS_P2;Temp;Humidity;BMP_temperature;BMP_pressure;BME280_temperature;BME280_humidity;BME280_pressure;Samples;Min_cycle;Max_cycle;Signal;HPM_P1;HPM_P2
2024/03/13 00:00:10;;;;;;;5.88;3.70;;;9.30;70.60;;;4.63;100.00;95640.06;4973739;28;20092;-58
2024/03/13 00:02:45;;;;;;;4.88;3.33;;;9.30;70.70;;;4.65;100.00;95645.13;4973824;28;20030;-59
2024/03/13 00:05:11;;;;;;;6.63;3.00;;;9.30;70.80;;;4.69;100.00;95648.09;4973562;28;20030;-58
2024/03/13 00:07:40;;;;;;;5.13;3.15;;;9.20;71.50;;;4.72;100.00;95645.81;4974669;28;20051;-59
2024/03/13 00:10:09;;;;;;;4.65;3.60;;;9.20;70.80;;;4.64;100.00;95633.75;4972534;28;20489;-59
2024/03/13 00:12:36;;;;;;;7.35;3.38;;;9.20;70.90;;;4.62;100.00;95640.28;4969504;28;20129;-58
2024/03/13 00:15:06;;;;;;;5.40;3.40;;;9.20;70.90;;;4.63;100.00;95642.69;4974099;28;20527;-58
2024/03/13 00:17:32;;;;;;;6.68;3.42;;;9.20;70.90;;;4.62;100.00;95632.38;4972731;28;20026;-57
2024/03/13 00:19:58;;;;;;;4.00;3.40;;;9.20;70.90;;;4.61;100.00;95633.41;4973569;28;20092;-59
2024/03/13 00:22:26;;;;;;;4.80;3.50;;;9.10;70.90;;;4.61;100.00;95633.41;4974050;28;20022;-59
2024/03/13 00:24:57;;;;;;;4.20;3.38;;;9.20;71.00;;;4.58;100.00;95639.13;4972722;28;20058;-57
2024/03/13 00:27:23;;;;;;;5.43;3.92;;;9.10;71.10;;;4.58;100.00;95628.59;4973605;28;20024;-57
2024/03/13 00:29:50;;;;;;;5.70;3.88;;;9.10;71.10;;;4.61;100.00;95626.28;4972827;28;20046;-57
2024/03/13 00:32:23;;;;;;;6.03;3.65;;;9.10;71.10;;;4.63;100.00;95626.84;4972199;28;20372;-59
2024/03/13 00:34:50;;;;;;;5.78;3.50;;;9.10;71.30;;;4.67;100.00;95623.75;4988263;28;20054;-59
2024/03/13 00:37:17;;;;;;;6.38;4.03;;;9.10;71.20;;;4.67;100.00;95626.41;4973007;28;20517;-59
2024/03/13 00:39:44;;;;;;;6.15;4.18;;;9.10;71.20;;;4.70;100.00;95629.41;4970627;28;20030;-57
2024/03/13 00:42:11;;;;;;;7.68;4.20;;;9.10;71.20;;;4.68;100.00;95623.56;4972296;28;20404;-57
2024/03/13 00:44:42;;;;;;;7.05;4.60;;;9.20;71.20;;;4.63;100.00;95621.59;4971328;28;20037;-59
2024/03/13 00:47:11;;;;;;;10.82;4.50;;;9.20;71.20;;;4.60;100.00;95616.75;4973018;28;20115;-52
2024/03/13 00:49:37;;;;;;;5.57;4.20;;;9.10;71.20;;;4.63;100.00;95612.88;4973374;28;20033;-59
2024/03/13 00:52:07;;;;;;;6.72;4.53;;;9.20;71.20;;;4.61;100.00;95607.03;4972745;28;20101;-59
2024/03/13 00:54:33;;;;;;;7.20;4.32;;;9.20;71.20;;;4.62;100.00;95603.34;4972049;28;20112;-59
2024/03/13 00:56:59;;;;;;;5.82;4.13;;;9.20;71.30;;;4.55;100.00;95600.81;4970166;28;20486;-59
2024/03/13 00:59:29;;;;;;;7.32;4.90;;;9.20;71.30;;;4.57;100.00;95603.22;4972847;28;20121;-56
2024/03/13 01:01:55;;;;;;;6.55;4.50;;;9.20;71.40;;;4.61;100.00;95599.91;4972328;28;20026;-59
2024/03/13 01:04:26;;;;;;;9.32;4.95;;;9.20;71.40;;;4.59;100.00;95601.97;4972088;28;20157;-58
2024/03/13 01:06:52;;;;;;;5.47;4.15;;;9.20;71.40;;;4.63;100.00;95599.66;4972253;28;20116;-59
2024/03/13 01:09:24;;;;;;;7.43;4.38;;;9.20;71.40;;;4.57;100.00;95590.81;4970740;28;20033;-58
2024/03/13 01:11:54;;;;;;;5.93;3.93;;;9.20;71.50;;;4.60;100.00;95589.56;5005236;22;20864;-53
2024/03/13 01:14:20;;;;;;;5.25;4.07;;;9.20;71.50;;;4.64;100.00;95594.19;5030360;28;20109;-53
2024/03/13 01:16:53;;;;;;;6.10;4.15;;;9.20;71.50;;;4.67;100.00;95586.81;5031160;28;20036;-52
2024/03/13 01:19:23;;;;;;;7.15;4.30;;;9.20;71.50;;;4.66;100.00;95582.59;5030526;28;20048;-50
2024/03/13 01:21:54;;;;;;;5.85;4.05;;;9.20;71.50;;;4.67;100.00;95581.56;5023132;28;20466;-48
2024/03/13 01:24:21;;;;;;;5.03;4.00;;;9.20;71.50;;;4.64;100.00;95578.34;5013701;28;20028;-51
2024/03/13 01:26:49;;;;;;;6.25;4.05;;;9.20;71.50;;;4.65;100.00;95581.78;5015237;28;20112;-51
2024/03/13 01:29:16;;;;;;;5.38;4.13;;;9.20;71.60;;;4.63;100.00;95573.28;5015702;28;20059;-48
2024/03/13 01:31:41;;;;;;;5.97;3.70;;;9.20;71.70;;;4.62;100.00;95577.75;5014526;28;20078;-48
2024/03/13 01:34:09;;;;;;;6.25;3.97;;;9.20;71.70;;;4.68;100.00;95564.72;5018214;28;20025;-53
2024/03/13 01:39:21;;;;;;;4.55;3.35;;;9.20;72.40;;;4.66;100.00;95570.19;5015966;28;20390;-47
2024/03/13 01:55:46;;;;;;;6.78;3.75;;;9.20;71.80;;;4.71;100.00;95557.13;5010318;28;20039;-47
2024/03/13 01:58:29;;;;;;;5.82;4.35;;;9.20;71.80;;;4.69;100.00;95548.63;5015665;28;20028;-47
2024/03/13 02:03:40;;;;;;;6.18;4.65;;;9.20;71.90;;;4.76;100.00;95545.88;5012342;28;20514;-51
2024/03/13 02:06:07;;;;;;;5.43;4.15;;;9.20;71.80;;;4.76;100.00;95541.41;5010165;28;20033;-48
2024/03/13 02:08:33;;;;;;;6.30;4.20;;;9.20;71.90;;;4.77;100.00;95534.31;5029255;28;20049;-48
2024/03/13 02:10:58;;;;;;;5.57;3.97;;;9.20;71.80;;;4.74;100.00;95540.03;5013284;28;20029;-50
2024/03/13 02:13:25;;;;;;;6.72;4.30;;;9.20;71.90;;;4.74;100.00;95532.13;5011264;28;20468;-47
2024/03/13 02:15:51;;;;;;;6.85;4.45;;;9.30;71.90;;;4.73;100.00;95533.97;5008937;28;20040;-48
2024/03/13 02:18:29;;;;;;;7.57;4.43;;;9.30;72.00;;;4.77;100.00;95532.47;5009039;28;20025;-48
2024/03/13 02:20:59;;;;;;;6.15;4.00;;;9.30;72.00;;;4.72;100.00;95527.06;5007815;28;20116;-52
2024/03/13 02:23:30;;;;;;;5.93;4.32;;;9.30;72.00;;;4.78;100.00;95528.78;5007927;28;20086;-49
2024/03/13 02:25:57;;;;;;;6.50;4.78;;;9.30;72.00;;;4.79;100.00;95522.47;5009115;28;20025;-47
2024/03/13 02:28:50;;;;;;;5.57;4.47;;;9.30;72.00;;;4.81;100.00;95519.63;5011836;28;20029;-50
2024/03/13 02:31:15;;;;;;;6.97;4.47;;;9.30;72.00;;;4.79;100.00;95514.56;5009242;28;20048;-48
2024/03/13 02:33:43;;;;;;;5.38;4.47;;;9.30;71.90;;;4.79;100.00;95511.13;5010627;28;20021;-49
2024/03/13 02:36:09;;;;;;;7.47;5.32;;;9.30;71.90;;;4.79;100.00;95511.13;5009056;28;20044;-49
2024/03/13 02:38:35;;;;;;;7.50;4.88;;;9.30;71.90;;;4.82;100.00;95514.09;5014050;28;20033;-55
2024/03/13 02:41:02;;;;;;;6.97;4.60;;;9.30;72.00;;;4.82;100.00;95510.66;5018440;28;20039;-53
2024/03/13 02:43:28;;;;;;;6.82;4.63;;;9.30;72.00;;;4.80;100.00;95502.97;5010126;28;20041;-50
2024/03/13 02:45:54;;;;;;;6.05;4.50;;;9.30;72.00;;;4.83;100.00;95505.16;5009767;28;20032;-50
2024/03/13 02:48:19;;;;;;;7.50;4.43;;;9.30;72.00;;;4.80;100.00;95497.72;5009448;28;20484;-47
2024/03/13 02:50:46;;;;;;;6.60;4.22;;;9.30;72.00;;;4.83;100.00;95501.72;5010292;28;20033;-50
2024/03/13 02:53:12;;;;;;;6.38;4.43;;;9.30;72.00;;;4.84;100.00;95490.94;5009237;28;20025;-48
2024/03/13 02:55:39;;;;;;;6.68;4.35;;;9.30;72.80;;;4.83;100.00;95491.16;5009546;28;20029;-52
2024/03/13 02:58:06;;;;;;;6.38;4.20;;;9.30;72.10;;;4.88;100.00;95492.06;5021588;28;20115;-49
2024/03/13 03:00:32;;;;;;;6.32;4.30;;;9.30;72.10;;;4.88;100.00;95496.53;5009239;28;20491;-51
2024/03/13 03:02:58;;;;;;;9.40;4.05;;;9.30;72.10;;;4.92;100.00;95499.53;5009581;28;20510;-51
2024/03/13 03:05:24;;;;;;;8.02;5.00;;;9.40;72.10;;;4.92;100.00;95503.00;5009710;28;20033;-51
2024/03/13 03:07:51;;;;;;;6.78;4.20;;;9.40;72.10;;;4.91;100.00;95496.09;5017845;28;20102;-49
2024/03/13 03:10:17;;;;;;;6.35;3.55;;;9.40;72.10;;;4.90;100.00;95501.59;5014347;28;20028;-52
2024/03/13 03:12:43;;;;;;;6.05;3.70;;;9.40;72.20;;;4.91;100.00;95495.28;5022221;28;20045;-47
2024/03/13 03:15:10;;;;;;;7.75;3.60;;;9.40;72.20;;;4.86;100.00;95499.44;5005614;28;20435;-47
2024/03/13 03:17:36;;;;;;;5.78;3.50;;;9.40;72.30;;;4.86;100.00;95502.06;5007256;28;20033;-51
2024/03/13 03:20:06;;;;;;;6.10;3.15;;;9.40;72.30;;;4.92;100.00;95504.78;5009449;28;20082;-47
2024/03/13 03:22:32;;;;;;;6.88;3.63;;;9.40;72.40;;;4.93;100.00;95504.59;5009787;28;20021;-48
2024/03/13 03:24:58;;;;;;;6.35;4.07;;;9.40;72.30;;;4.94;100.00;95500.91;5008249;28;20637;-51
2024/03/13 03:27:25;;;;;;;4.60;3.60;;;9.40;72.30;;;4.94;100.00;95498.25;5009016;28;20187;-48
2024/03/13 03:29:52;;;;;;;6.18;3.50;;;9.40;72.30;;;4.93;100.00;95498.50;5008537;28;20083;-47
2024/03/13 03:32:21;;;;;;;7.90;3.70;;;9.40;72.40;;;4.94;100.00;95487.69;5009184;28;20025;-49
2024/03/13 03:34:47;;;;;;;5.68;3.80;;;9.40;72.40;;;4.97;100.00;95494.38;5009271;28;20391;-48
2024/03/13 03:37:17;;;;;;;5.85;3.42;;;9.40;72.40;;;4.95;100.00;95496.41;5008253;28;20033;-49
2024/03/13 03:39:43;;;;;;;5.90;3.20;;;9.40;72.40;;;4.92;100.00;95507.44;5009192;28;20094;-47
2024/03/13 03:42:08;;;;;;;4.03;3.13;;;9.40;72.30;;;4.93;100.00;95501.16;5007834;28;20026;-48
2024/03/13 03:44:34;;;;;;;3.78;3.00;;;9.40;72.30;;;4.92;100.00;95496.88;5009470;28;20066;-52
2024/03/13 03:47:00;;;;;;;6.82;3.08;;;9.40;72.40;;;4.90;100.00;95501.59;5008949;28;20025;-53
2024/03/13 03:49:26;;;;;;;7.22;4.53;;;9.40;72.40;;;4.84;100.00;95512.03;5009137;28;20026;-48
2024/03/13 03:51:53;;;;;;;6.43;3.50;;;9.40;72.40;;;4.85;100.00;95511.00;5009381;28;20048;-48
2024/03/13 03:54:21;;;;;;;6.60;4.03;;;9.40;72.40;;;4.84;100.00;95509.41;5008157;28;20021;-49
2024/03/13 03:56:48;;;;;;;6.63;4.10;;;9.40;73.20;;;4.84;100.00;95509.41;5009393;28;20128;-49
2024/03/13 03:59:14;;;;;;;6.10;4.18;;;9.40;73.20;;;4.84;100.00;95500.69;5008527;28;20116;-49
2024/03/13 04:01:43;;;;;;;6.45;4.20;;;9.40;72.50;;;4.79;100.00;95504.00;5006272;28;20125;-47
2024/03/13 04:04:10;;;;;;;6.35;4.13;;;9.30;72.40;;;4.78;100.00;95502.41;5008898;28;20112;-48
2024/03/13 04:06:35;;;;;;;6.57;4.25;;;9.30;72.40;;;4.79;100.00;95500.56;5009709;28;20025;-48
2024/03/13 04:09:14;;;;;;;7.93;4.07;;;9.30;72.50;;;4.80;100.00;95502.19;5009453;28;20361;-50
2024/03/13 04:11:41;;;;;;;7.15;4.32;;;9.30;72.50;;;4.78;100.00;95499.75;5008089;28;20454;-50
2024/03/13 04:14:07;;;;;;;6.75;4.55;;;9.30;72.60;;;4.76;100.00;95504.47;5008802;28;20395;-48
2024/03/13 04:16:32;;;;;;;6.57;4.47;;;9.30;72.60;;;4.79;100.00;95506.63;5008884;28;20030;-47
2024/03/13 04:18:58;;;;;;;7.32;4.53;;;9.30;72.60;;;4.81;100.00;95506.41;5008078;28;20496;-49
2024/03/13 04:21:24;;;;;;;6.57;4.53;;;9.30;72.60;;;4.82;100.00;95510.66;5008732;28;20033;-48
2024/03/13 04:23:50;;;;;;;7.03;4.65;;;9.30;72.60;;;4.81;100.00;95514.34;5008341;28;20022;-49
2024/03/13 04:26:16;;;;;;;8.35;4.70;;;9.30;72.60;;;4.81;100.00;95507.22;5008311;28;20040;-48
2024/03/13 04:28:43;;;;;;;9.35;5.30;;;9.30;72.60;;;4.78;100.00;95512.16;5009299;28;20029;-48
2024/03/13 04:31:13;;;;;;;7.63;5.32;;;9.30;72.60;;;4.78;100.00;95518.22;5008748;28;20755;-49
2024/03/13 04:33:42;;;;;;;10.40;5.35;;;9.30;72.70;;;4.81;100.00;95519.63;5008736;28;20025;-55
2024/03/13 04:36:08;;;;;;;11.13;4.95;;;9.30;72.70;;;4.81;100.00;95522.25;5008208;28;20033;-53
2024/03/13 04:38:34;;;;;;;7.78;5.05;;;9.30;72.70;;;4.81;100.00;95515.13;5008904;28;20021;-55
2024/03/13 04:41:00;;;;;;;6.57;4.72;;;9.30;72.70;;;4.83;100.00;95518.34;5025295;28;20488;-55
2024/03/13 04:43:27;;;;;;;8.88;5.43;;;9.30;72.80;;;4.85;100.00;95524.19;5011800;28;20117;-50
2024/03/13 04:45:56;;;;;;;9.55;5.80;;;9.30;72.80;;;4.84;100.00;95527.88;5006407;28;20048;-52
2024/03/13 04:48:22;;;;;;;8.20;5.40;;;9.40;72.90;;;4.84;100.00;95522.59;5010704;28;20029;-49
2024/03/13 04:50:48;;;;;;;10.02;5.72;;;9.30;72.80;;;4.87;100.00;95521.34;5011942;28;20026;-53
2024/03/13 04:53:14;;;;;;;8.52;5.68;;;9.30;72.80;;;4.87;100.00;95519.50;5011285;28;20031;-49
2024/03/13 04:55:40;;;;;;;10.65;5.78;;;9.40;72.90;;;4.86;100.00;95523.19;5011611;28;20036;-53
2024/03/13 04:58:06;;;;;;;11.70;5.35;;;9.30;72.90;;;4.88;100.00;95526.38;5011985;28;20021;-49
2024/03/13 05:00:32;;;;;;;10.93;5.90;;;9.40;72.90;;;4.84;100.00;95522.59;5011462;28;20027;-51
2024/03/13 05:02:58;;;;;;;11.02;6.22;;;9.40;73.00;;;4.79;100.00;95519.84;5010295;28;20021;-47
2024/03/13 05:05:24;;;;;;;12.10;6.30;;;9.30;72.90;;;4.82;100.00;95524.66;5011034;28;20208;-48
2024/03/13 05:07:49;;;;;;;11.40;6.18;;;9.40;73.00;;;4.84;100.00;95527.88;5011819;28;20033;-49
2024/03/13 05:10:19;;;;;;;18.83;6.82;;;9.40;73.00;;;4.87;100.00;95527.41;5012281;28;20108;-48
2024/03/13 05:12:48;;;;;;;13.15;6.35;;;9.40;73.10;;;4.87;100.00;95523.97;5009578;28;20045;-49
2024/03/13 05:15:14;;;;;;;17.95;6.47;;;9.40;73.00;;;4.88;100.00;95533.50;5011256;28;20492;-51
2024/03/13 05:17:39;;;;;;;13.30;6.85;;;9.40;73.00;;;4.90;100.00;95533.28;5010652;28;20049;-48
2024/03/13 05:20:10;;;;;;;13.65;6.47;;;9.40;73.00;;;4.91;100.00;95537.50;5011934;28;20427;-49
2024/03/13 05:22:37;;;;;;;10.70;6.80;;;9.40;73.10;;;4.87;100.00;95537.19;5009746;28;20029;-50
2024/03/13 05:25:11;;;;;;;10.88;6.95;;;9.40;73.10;;;4.90;100.00;95535.91;5010357;28;20029;-51
2024/03/13 05:27:36;;;;;;;15.95;7.45;;;9.40;73.20;;;4.89;100.00;95545.69;5010619;28;20506;-48
2024/03/13 05:30:03;;;;;;;15.25;7.43;;;9.40;73.10;;;4.87;100.00;95542.44;5010410;28;20029;-48
2024/03/13 05:32:28;;;;;;;14.25;6.40;;;9.40;73.10;;;4.86;100.00;95546.94;5011003;28;20033;-48
2024/03/13 05:34:55;;;;;;;12.88;7.05;;;9.40;73.20;;;4.84;100.00;95551.63;5026423;28;20094;-50
2024/03/13 05:37:21;;;;;;;14.80;7.15;;;9.40;73.20;;;4.87;100.00;95542.44;5009797;28;20032;-49
2024/03/13 05:39:48;;;;;;;10.02;5.90;;;9.40;73.30;;;4.88;100.00;95552.78;5011579;28;20025;-48
2024/03/13 05:42:14;;;;;;;9.85;5.95;;;9.40;73.30;;;4.90;100.00;95546.47;5010337;28;20029;-51
2024/03/13 05:44:40;;;;;;;10.30;6.78;;;9.40;73.40;;;4.91;100.00;95546.22;5010783;28;20468;-49
2024/03/13 05:47:06;;;;;;;13.43;7.00;;;9.40;73.50;;;4.96;100.00;95551.63;5010071;28;20070;-49
2024/03/13 05:49:31;;;;;;;10.60;6.35;;;9.40;73.50;;;4.95;100.00;95552.69;5011183;28;20030;-48
2024/03/13 05:51:57;;;;;;;10.35;6.07;;;9.40;73.50;;;4.91;100.00;95553.34;5011144;28;20086;-47
2024/03/13 05:54:23;;;;;;;13.63;6.68;;;9.40;74.30;;;4.96;100.00;95564.03;5009897;28;20082;-49
2024/03/13 05:56:50;;;;;;;12.65;6.25;;;9.50;73.50;;;4.94;100.00;95552.91;5010312;28;20029;-49
2024/03/13 05:59:18;;;;;;;11.75;6.57;;;9.50;73.50;;;4.97;100.00;95552.44;5010012;28;20155;-50
2024/03/13 06:01:44;;;;;;;11.13;6.00;;;9.50;73.60;;;4.98;100.00;95556.69;5010660;28;20025;-49
2024/03/13 06:04:09;;;;;;;14.75;6.60;;;9.50;73.60;;;4.97;100.00;95560.34;5010649;28;20582;-48
2024/03/13 06:06:37;;;;;;;15.45;6.68;;;9.50;73.60;;;4.99;100.00;95561.75;5010112;28;20025;-47
2024/03/13 06:09:03;;;;;;;68.78;9.00;;;9.50;73.60;;;5.00;100.00;95567.81;5010798;28;20017;-47
2024/03/13 06:11:29;;;;;;;16.33;6.25;;;9.50;73.60;;;4.98;100.00;95569.88;5009721;28;20056;-48
2024/03/13 06:13:55;;;;;;;12.20;6.90;;;9.50;73.60;;;4.98;100.00;95567.25;5010287;28;20037;-49
2024/03/13 06:16:21;;;;;;;14.65;6.05;;;9.50;73.70;;;5.01;100.00;95572.06;5010429;28;20036;-51
2024/03/13 06:18:46;;;;;;;17.55;5.90;;;9.50;73.70;;;5.04;100.00;95576.88;5009989;28;20399;-48
2024/03/13 06:21:13;;;;;;;11.95;5.40;;;9.60;73.70;;;4.99;100.00;95576.78;5010059;28;20029;-49
2024/03/13 06:23:47;;;;;;;13.10;5.63;;;9.50;73.70;;;5.00;100.00;95573.09;5008691;28;20025;-48
2024/03/13 06:26:17;;;;;;;9.20;5.03;;;9.60;73.80;;;5.00;100.00;95570.47;5007230;28;20025;-48
2024/03/13 06:31:30;;;;;;;8.02;4.75;;;9.60;73.90;;;4.99;100.00;95577.59;5009405;28;20086;-49
2024/03/13 06:33:56;;;;;;;19.02;6.47;;;9.60;73.90;;;5.01;100.00;95585.25;5010220;28;20388;-48
2024/03/13 06:36:22;;;;;;;9.80;5.47;;;9.60;73.90;;;4.95;100.00;95579.09;5009575;28;20045;-47
2024/03/13 06:38:48;;;;;;;9.57;4.93;;;9.60;74.00;;;5.04;100.00;95576.88;5010150;28;20498;-50
2024/03/13 06:41:14;;;;;;;11.38;5.55;;;9.60;74.00;;;5.10;100.00;95581.25;5009757;28;20045;-48
2024/03/13 06:43:40;;;;;;;7.68;4.57;;;9.60;74.00;;;5.07;100.00;95576.41;5010321;28;20112;-49
2024/03/13 06:46:12;;;;;;;9.23;4.57;;;9.70;74.10;;;5.10;100.00;95587.31;5010122;28;20116;-50
2024/03/13 06:48:38;;;;;;;8.00;4.18;;;9.70;74.20;;;5.14;100.00;95595.63;5009139;28;20512;-49
2024/03/13 06:51:12;;;;;;;9.52;4.20;;;9.70;74.10;;;5.14;100.00;95597.44;5009950;28;20053;-53
2024/03/13 06:53:38;;;;;;;8.10;3.47;;;9.70;74.00;;;5.16;100.00;95601.44;5008635;28;20027;-50
2024/03/13 06:56:05;;;;;;;15.75;4.20;;;9.70;74.00;;;5.21;100.00;95606.06;5008586;28;20108;-51
2024/03/13 06:58:31;;;;;;;6.85;3.75;;;9.70;74.00;;;5.22;100.00;95613.75;5009179;28;20028;-49
2024/03/13 07:00:58;;;;;;;9.55;3.65;;;9.80;74.00;;;5.22;100.00;95618.22;5010549;28;20024;-51
2024/03/13 07:03:24;;;;;;;4.93;3.22;;;9.80;74.00;;;5.25;100.00;95620.41;5002429;28;20383;-50
2024/03/13 07:05:53;;;;;;;6.15;3.65;;;9.80;73.80;;;5.26;100.00;95622.00;5003715;28;20021;-48
2024/03/13 07:08:19;;;;;;;6.30;3.63;;;9.80;73.80;;;5.27;100.00;95623.63;5009010;28;20032;-49
2024/03/13 07:10:46;;;;;;;9.20;3.85;;;9.80;73.80;;;5.16;100.00;95627.84;5004349;28;20408;-52
2024/03/13 07:13:13;;;;;;;10.27;3.40;;;9.80;73.70;;;5.18;100.00;95633.72;5008179;28;20038;-48
2024/03/13 07:15:42;;;;;;;4.85;2.95;;;9.90;73.70;;;5.17;100.00;95626.84;5010415;28;20111;-48
2024/03/13 07:18:08;;;;;;;10.63;2.95;;;9.80;73.60;;;5.18;100.00;95627.66;5008458;28;20522;-50
2024/03/13 07:20:34;;;;;;;4.85;3.25;;;9.80;73.50;;;5.16;100.00;95634.97;5010350;28;20057;-51
2024/03/13 07:23:00;;;;;;;17.77;3.38;;;9.90;73.50;;;5.17;100.00;95641.88;5008875;28;20480;-50
2024/03/13 07:25:25;;;;;;;13.77;3.22;;;9.90;73.50;;;5.20;100.00;95636.13;5012771;28;20044;-50
2024/03/13 07:27:51;;;;;;;4.38;2.97;;;9.90;73.50;;;5.13;100.00;95641.53;5007377;28;20029;-49
2024/03/13 07:30:18;;;;;;;6.72;3.42;;;9.90;73.50;;;5.21;100.00;95643.84;5008423;28;20468;-53
2024/03/13 07:32:44;;;;;;;4.38;2.85;;;9.90;73.60;;;5.28;100.00;95638.44;5008986;28;20045;-50
2024/03/13 07:35:10;;;;;;;7.05;2.95;;;9.90;73.60;;;5.30;100.00;95645.09;5008633;28;20084;-52
2024/03/13 07:37:39;;;;;;;11.68;2.70;;;10.00;73.60;;;5.25;100.00;95649.47;5010547;28;20530;-49
2024/03/13 07:40:09;;;;;;;3.92;2.47;;;10.00;73.60;;;5.30;100.00;95641.66;5025460;28;20037;-53
2024/03/13 07:42:35;;;;;;;5.22;2.42;;;10.00;73.60;;;5.26;100.00;95653.69;5008591;28;20029;-52
2024/03/13 07:45:02;;;;;;;43.25;3.78;;;10.00;73.50;;;5.27;100.00;95656.13;5009194;28;20112;-51
2024/03/13 07:47:28;;;;;;;123.18;7.03;;;10.10;73.50;;;5.34;100.00;95651.53;5009571;28;20566;-50
2024/03/13 07:49:54;;;;;;;34.13;4.97;;;10.10;73.60;;;5.42;100.00;95655.69;5012027;28;20513;-48
2024/03/13 07:52:20;;;;;;;31.42;3.90;;;10.10;73.60;;;5.44;100.00;95656.22;5008768;28;20438;-50
2024/03/13 07:54:46;;;;;;;3.92;2.58;;;10.20;73.60;;;5.50;100.00;95670.38;5010258;28;20032;-48
2024/03/13 07:57:12;;;;;;;4.20;1.70;;;10.20;73.60;;;5.53;100.00;95665.41;5008790;28;20033;-51
2024/03/13 07:59:40;;;;;;;8.95;2.17;;;10.20;73.60;;;5.55;100.00;95659.91;5008381;28;20147;-49
2024/03/13 08:02:08;;;;;;;9.25;2.10;;;10.30;73.60;;;5.51;100.00;95664.03;5008112;28;20021;-48
2024/03/13 08:04:36;;;;;;;2.92;1.83;;;10.30;73.60;;;5.52;100.00;95669.09;5005954;28;20057;-49
2024/03/13 08:07:03;;;;;;;2.88;2.20;;;10.30;73.50;;;5.59;100.00;95674.28;5007433;28;20043;-55
2024/03/13 08:09:30;;;;;;;50.17;5.90;;;10.40;73.60;;;5.62;100.00;95670.38;5010478;28;20049;-53
2024/03/13 08:12:00;;;;;;;3.03;2.00;;;10.40;73.50;;;5.67;100.00;95679.22;5009500;28;20048;-48
2024/03/13 08:14:26;;;;;;;3.78;1.77;;;10.40;73.50;;;5.72;100.00;95683.81;5013736;28;20025;-52
2024/03/13 08:16:52;;;;;;;2.97;1.85;;;10.50;74.30;;;5.73;100.00;95680.91;5013564;28;20029;-50
2024/03/13 08:19:18;;;;;;;3.50;1.90;;;10.50;73.50;;;5.73;100.00;95688.84;5012810;28;20029;-51
2024/03/13 08:21:44;;;;;;;21.75;3.20;;;10.50;73.40;;;5.75;100.00;95688.63;5011874;28;20036;-48
2024/03/13 08:24:10;;;;;;;5.93;2.40;;;10.60;73.40;;;5.79;100.00;95687.13;5010368;28;20372;-49
2024/03/13 08:26:36;;;;;;;6.10;2.35;;;10.60;73.40;;;5.80;100.00;95689.53;5014604;28;20025;-51
2024/03/13 08:29:03;;;;;;;4.10;2.35;;;10.70;73.40;;;5.85;100.00;95699.41;5012634;28;20026;-51
2024/03/13 08:31:28;;;;;;;7.45;2.63;;;10.70;73.30;;;5.90;100.00;95696.09;5010884;28;20037;-52
2024/03/13 08:33:56;;;;;;;6.88;2.33;;;10.70;73.30;;;5.93;100.00;95696.47;5012508;28;20028;-48
2024/03/13 08:36:22;;;;;;;3.15;2.05;;;10.80;73.30;;;5.95;100.00;95704.94;5012645;28;20115;-48
2024/03/13 08:38:49;;;;;;;3.78;2.30;;;10.90;73.30;;;6.02;100.00;95697.72;5012690;28;20047;-51
2024/03/13 08:41:19;;;;;;;6.40;2.20;;;10.90;73.20;;;6.08;100.00;95705.72;5011449;28;20535;-52
2024/03/13 08:43:46;;;;;;;3.95;2.05;;;11.00;73.20;;;6.14;100.00;95704.78;5011982;28;20026;-48
2024/03/13 08:46:12;;;;;;;2.80;1.73;;;11.00;73.10;;;6.13;100.00;95711.94;5013216;28;20029;-54
2024/03/13 08:48:38;;;;;;;2.08;1.77;;;11.10;73.00;;;6.18;100.00;95709.41;5018657;28;20030;-54
2024/03/13 08:51:09;;;;;;;2.72;1.77;;;11.20;73.00;;;6.20;100.00;95709.16;5018311;28;20021;-52
2024/03/13 08:53:38;;;;;;;6.55;1.92;;;11.20;73.00;;;6.23;100.00;95716.63;5011493;28;20037;-52
2024/03/13 08:56:05;;;;;;;2.63;1.90;;;11.20;72.90;;;6.24;100.00;95711.13;5014324;28;20033;-52
2024/03/13 08:58:30;;;;;;;3.05;1.98;;;11.30;72.90;;;6.30;100.00;95716.50;5012080;28;20021;-49
2024/03/13 09:00:56;;;;;;;3.72;2.30;;;11.30;72.80;;;6.33;100.00;95716.03;5014319;28;20028;-49
2024/03/13 09:03:23;;;;;;;5.70;2.30;;;11.40;73.10;;;6.31;100.00;95716.28;5016965;28;20499;-52
2024/03/13 09:05:53;;;;;;;3.40;2.40;;;11.40;72.70;;;6.36;100.00;95724.31;5027651;28;20057;-49
2024/03/13 09:08:19;;;;;;;3.38;2.38;;;11.40;72.70;;;6.45;100.00;95724.75;5010692;28;20032;-49
2024/03/13 09:10:45;;;;;;;4.60;2.33;;;11.50;72.70;;;6.45;100.00;95730.03;5030203;28;20025;-51
2024/03/13 09:13:12;;;;;;;5.05;2.08;;;11.50;72.60;;;6.52;100.00;95720.13;5004699;28;20046;-51
2024/03/13 09:15:38;;;;;;;2.55;1.85;;;11.60;72.70;;;6.56;100.00;95725.75;5011909;28;20079;-49
2024/03/13 09:18:04;;;;;;;3.15;1.95;;;11.70;72.60;;;6.63;100.00;95724.56;5010432;28;20049;-54
2024/03/13 09:20:30;;;;;;;3.03;2.10;;;11.70;72.50;;;6.63;100.00;95729.88;5011648;28;20492;-49
2024/03/13 09:22:56;;;;;;;2.55;1.90;;;11.80;72.40;;;6.61;100.00;95731.13;5011910;28;20024;-50
2024/03/13 09:25:22;;;;;;;3.88;2.25;;;11.90;72.30;;;6.71;100.00;95731.34;5006734;28;20031;-49
2024/03/13 09:27:47;;;;;;;6.55;2.10;;;11.90;72.20;;;6.70;100.00;95732.38;5011937;28;20033;-51
2024/03/13 09:30:14;;;;;;;54.13;3.35;;;11.90;72.20;;;6.68;100.00;95731.81;5013471;28;20317;-50
2024/03/13 09:32:40;;;;;;;2.42;2.10;;;11.90;72.10;;;6.77;100.00;95735.69;5008961;28;20026;-53
2024/03/13 09:35:09;;;;;;;2.45;2.10;;;12.00;72.10;;;6.85;100.00;95737.16;5009569;28;20029;-55
2024/03/13 09:37:37;;;;;;;5.07;1.85;;;12.00;72.10;;;6.86;100.00;95736.94;5011553;28;20030;-51
2024/03/13 09:40:04;;;;;;;2.47;1.83;;;12.00;72.10;;;6.88;100.00;95734.84;5011482;28;20506;-49
2024/03/13 09:42:37;;;;;;;40.42;3.42;;;12.00;72.90;;;6.90;100.00;95737.25;5010388;28;20065;-50
2024/03/13 09:45:07;;;;;;;3.05;1.50;;;12.10;72.20;;;6.97;100.00;95743.19;5011023;28;20040;-49
2024/03/13 09:47:34;;;;;;;11.20;2.35;;;12.10;72.00;;;6.93;100.00;95744.72;5029923;28;20074;-51
2024/03/13 09:50:05;;;;;;;27.27;3.08;;;12.20;72.00;;;6.99;100.00;95742.94;5023439;28;20253;-50
2024/03/13 09:52:33;;;;;;;2.53;1.50;;;12.10;71.90;;;7.04;100.00;95745.69;5010475;28;20116;-50
2024/03/13 09:55:03;;;;;;;5.82;1.73;;;12.20;72.00;;;7.09;100.00;95748.44;5009890;28;20027;-49
2024/03/13 09:57:34;;;;;;;1.80;1.42;;;12.30;72.00;;;7.14;100.00;95751.16;5010977;28;20045;-48
2024/03/13 10:00:02;;;;;;;2.58;1.80;;;12.30;71.90;;;7.19;100.00;95743.31;5009499;28;20476;-49
2024/03/13 10:02:41;;;;;;;2.58;1.83;;;12.40;71.90;;;7.26;100.00;95746.63;5027484;28;20479;-51
2024/03/13 10:05:12;;;;;;;8.57;2.03;;;12.50;71.90;;;7.23;100.00;95752.41;5011094;28;20148;-51
2024/03/13 10:07:39;;;;;;;1.40;1.23;;;12.50;71.70;;;7.30;100.00;95752.22;5010365;28;20025;-49
2024/03/13 10:10:26;;;;;;;2.90;1.70;;;12.60;71.60;;;7.29;100.00;95748.78;5011162;28;20407;-54
2024/03/13 10:12:56;;;;;;;2.55;1.55;;;12.60;71.50;;;7.35;100.00;95752.34;5010312;28;20052;-52
2024/03/13 10:15:23;;;;;;;6.95;1.77;;;12.60;71.50;;;7.41;100.00;95751.38;5010852;28;20455;-54
2024/03/13 10:18:05;;;;;;;1.60;1.48;;;12.70;71.50;;;7.41;100.00;95752.19;5009759;28;20025;-55
2024/03/13 10:21:08;;;;;;;7.32;1.75;;;12.70;71.40;;;7.44;100.00;95753.53;5011016;28;20112;-55
2024/03/13 10:23:42;;;;;;;2.05;1.40;;;12.70;71.50;;;7.49;100.00;95758.13;5009960;28;20512;-53
2024/03/13 10:26:11;;;;;;;3.53;1.58;;;12.70;71.40;;;7.46;100.00;95751.47;5010907;28;20468;-51
2024/03/13 10:28:38;;;;;;;3.03;1.75;;;12.80;71.40;;;7.57;100.00;95745.28;5008847;28;20040;-55
2024/03/13 10:31:05;;;;;;;3.10;1.50;;;12.80;71.40;;;7.67;100.00;95751.78;5024951;28;20495;-50
2024/03/13 10:33:32;;;;;;;2.63;1.55;;;12.80;71.50;;;7.67;100.00;95749.94;5010719;28;20037;-53
2024/03/13 10:35:57;;;;;;;1.98;1.70;;;12.90;71.30;;;7.78;100.00;95749.03;5009396;28;20037;-55
2024/03/13 10:38:25;;;;;;;2.70;1.42;;;13.00;71.40;;;7.82;100.00;95747.50;5009565;28;20553;-55
2024/03/13 10:40:51;;;;;;;1.77;1.58;;;13.10;71.30;;;7.86;100.00;95743.31;5010290;28;20031;-53
2024/03/13 10:43:18;;;;;;;1.95;1.33;;;13.20;71.20;;;7.92;100.00;95746.06;5009102;28;20017;-55
2024/03/13 10:45:50;;;;;;;1.52;1.42;;;13.30;71.10;;;7.99;100.00;95742.19;5010513;28;20116;-54